createdAt,value
2023-03-18T00:01:28.315Z,16.35
2023-03-18T00:03:55.740Z,15.70
2023-03-18T00:06:23.328Z,16.73
2023-03-18T00:08:51.003Z,15.65
2023-03-18T00:11:21.634Z,15.52
2023-03-18T00:13:49.421Z,15.43
2023-03-18T00:16:17.413Z,15.75
2023-03-18T00:18:45.420Z,15.98
2023-03-18T00:21:12.888Z,15.50
2023-03-18T00:23:40.347Z,15.93
2023-03-18T00:26:09.147Z,16.08
2023-03-18T00:28:38.469Z,15.85
2023-03-18T00:31:09.104Z,16.38
2023-03-18T00:33:38.210Z,16.55
2023-03-18T00:36:06.646Z,16.33
2023-03-18T00:38:35.673Z,16.63
2023-03-18T00:41:13.416Z,17.05
2023-03-18T00:43:54.607Z,17.02
2023-03-18T00:46:25.815Z,17.80
2023-03-18T00:48:54.782Z,18.20
2023-03-18T00:51:23.580Z,18.02
2023-03-18T00:53:53.451Z,17.13
2023-03-18T00:56:24.329Z,18.08
2023-03-18T00:58:52.427Z,17.38
2023-03-18T01:01:21.296Z,18.52
2023-03-18T01:03:52.367Z,19.40
2023-03-18T01:06:31.595Z,19.50
2023-03-18T01:09:01.439Z,18.88
2023-03-18T01:11:29.343Z,19.13
2023-03-18T01:13:57.475Z,20.45
2023-03-18T01:16:25.256Z,21.00
2023-03-18T01:18:53.956Z,20.92
2023-03-18T01:21:22.310Z,21.30
2023-03-18T01:23:49.810Z,21.20
2023-03-18T01:26:17.804Z,21.58
2023-03-18T01:28:47.373Z,21.25
2023-03-18T01:31:16.429Z,20.77
2023-03-18T01:33:43.924Z,21.85
2023-03-18T01:36:11.944Z,22.42
2023-03-18T01:38:41.425Z,22.98
2023-03-18T01:41:08.861Z,21.95
2023-03-18T01:43:39.225Z,21.63
2023-03-18T01:46:40.125Z,21.88
2023-03-18T01:49:17.628Z,21.77
2023-03-18T01:51:52.219Z,21.80
2023-03-18T01:54:22.105Z,20.98
2023-03-18T01:56:50.621Z,21.10
2023-03-18T01:59:18.875Z,21.27
2023-03-18T02:01:59.699Z,22.02
2023-03-18T02:04:31.513Z,20.95
2023-03-18T02:07:00.027Z,19.77
2023-03-18T02:09:29.721Z,21.00
2023-03-18T02:11:57.173Z,20.25
2023-03-18T02:14:26.744Z,19.98
2023-03-18T02:16:59.970Z,20.10
2023-03-18T02:19:41.200Z,20.25
2023-03-18T02:22:32.146Z,18.92
2023-03-18T02:25:15.191Z,19.02
2023-03-18T02:27:48.191Z,19.23
2023-03-18T02:30:21.480Z,18.17
2023-03-18T02:32:49.861Z,18.35
2023-03-18T02:35:17.321Z,17.95
2023-03-18T02:37:44.663Z,18.58
2023-03-18T02:40:18.355Z,17.92
2023-03-18T02:42:47.653Z,17.80
2023-03-18T02:46:00.252Z,17.63
2023-03-18T02:48:33.259Z,17.33
2023-03-18T02:51:00.573Z,16.58
2023-03-18T02:53:28.124Z,17.15
2023-03-18T02:55:55.508Z,16.88
2023-03-18T02:58:23.064Z,16.67
2023-03-18T03:00:50.528Z,17.52
2023-03-18T03:03:18.622Z,17.10
2023-03-18T03:05:46.096Z,17.92
2023-03-18T03:08:14.857Z,17.25
2023-03-18T03:10:42.864Z,16.35
2023-03-18T03:13:11.632Z,17.13
2023-03-18T03:15:40.195Z,17.35
2023-03-18T03:18:08.837Z,17.10
2023-03-18T03:20:39.012Z,16.27
2023-03-18T03:23:10.377Z,16.83
2023-03-18T03:25:38.373Z,16.00
2023-03-18T03:28:07.304Z,17.30
2023-03-18T03:30:37.753Z,16.25
2023-03-18T03:33:05.821Z,17.42
2023-03-18T03:35:33.380Z,16.38
2023-03-18T03:38:00.879Z,17.95
2023-03-18T03:40:28.622Z,17.25
2023-03-18T03:42:56.181Z,17.05
2023-03-18T03:45:25.298Z,17.00
2023-03-18T03:47:52.660Z,16.38
2023-03-18T03:50:22.949Z,16.85
2023-03-18T03:52:53.261Z,16.23
2023-03-18T03:55:22.790Z,17.20
2023-03-18T03:57:51.351Z,16.15
2023-03-18T04:00:22.583Z,16.17
2023-03-18T04:03:02.376Z,17.17
2023-03-18T04:05:30.674Z,17.83
2023-03-18T04:08:03.797Z,16.67
2023-03-18T04:10:31.323Z,16.95
2023-03-18T04:12:58.905Z,16.95
2023-03-18T04:15:27.925Z,16.50
2023-03-18T04:17:55.943Z,15.60
2023-03-18T04:20:25.562Z,16.77
2023-03-18T04:22:55.922Z,18.48
2023-03-18T04:25:25.789Z,17.40
2023-03-18T04:27:53.145Z,19.02
2023-03-18T04:30:20.787Z,17.33
2023-03-18T04:32:48.183Z,18.92
2023-03-18T04:35:16.387Z,18.33
2023-03-18T04:37:44.995Z,18.92
2023-03-18T04:40:17.513Z,18.88
2023-03-18T04:42:47.804Z,18.25
2023-03-18T04:45:16.303Z,18.67
2023-03-18T04:47:44.494Z,17.73
2023-03-18T04:50:15.549Z,18.15
2023-03-18T04:52:44.832Z,17.73
2023-03-18T04:55:14.219Z,18.85
2023-03-18T04:57:42.664Z,18.55
2023-03-18T05:00:13.309Z,19.00
2023-03-18T05:02:41.301Z,19.48
2023-03-18T05:05:09.252Z,18.92
2023-03-18T05:07:38.108Z,18.77
2023-03-18T05:10:09.525Z,19.25
2023-03-18T05:12:37.349Z,20.00
2023-03-18T05:15:06.263Z,19.90
2023-03-18T05:17:34.334Z,20.55
2023-03-18T05:20:01.780Z,20.00
2023-03-18T05:22:29.286Z,21.08
2023-03-18T05:24:56.674Z,20.98
2023-03-18T05:27:24.497Z,21.73
2023-03-18T05:29:51.835Z,20.98
2023-03-18T05:32:19.624Z,20.85
2023-03-18T05:34:47.202Z,21.65
2023-03-18T05:37:16.017Z,21.80
2023-03-18T05:39:44.921Z,20.83
2023-03-18T05:42:12.742Z,20.98
2023-03-18T05:44:40.653Z,20.92
2023-03-18T05:47:08.851Z,20.02
2023-03-18T05:49:36.761Z,23.15
2023-03-18T05:52:05.309Z,20.10
2023-03-18T05:54:35.037Z,22.25
2023-03-18T05:57:02.523Z,21.25
2023-03-18T05:59:30.308Z,21.92
2023-03-18T06:01:57.927Z,21.38
2023-03-18T06:04:29.811Z,21.30
2023-03-18T06:06:58.412Z,21.23
2023-03-18T06:09:28.541Z,23.33
2023-03-18T06:11:56.097Z,23.48
2023-03-18T06:14:29.261Z,22.17
2023-03-18T06:16:57.312Z,22.35
2023-03-18T06:19:25.871Z,23.38
2023-03-18T06:21:53.229Z,23.10
2023-03-18T06:24:23.588Z,22.10
2023-03-18T06:26:51.814Z,22.67
2023-03-18T06:29:20.022Z,21.65
2023-03-18T06:31:47.368Z,19.55
2023-03-18T06:34:14.872Z,18.63
2023-03-18T06:36:42.398Z,17.40
2023-03-18T06:39:10.745Z,19.98
2023-03-18T06:41:38.425Z,17.77
2023-03-18T06:44:06.176Z,17.65
2023-03-18T06:46:34.797Z,16.20
2023-03-18T06:49:02.685Z,17.13
2023-03-18T06:51:30.040Z,17.95
2023-03-18T06:53:57.445Z,17.17
2023-03-18T06:56:25.734Z,16.55
2023-03-18T06:58:53.062Z,15.35
2023-03-18T07:01:20.987Z,15.45
2023-03-18T07:03:50.028Z,16.08
2023-03-18T07:06:19.119Z,16.17
2023-03-18T07:08:47.190Z,17.00
2023-03-18T07:11:14.754Z,16.05
2023-03-18T07:13:42.291Z,15.93
2023-03-18T07:16:09.810Z,14.85
2023-03-18T07:18:40.621Z,15.32
2023-03-18T07:21:08.155Z,15.18
2023-03-18T07:23:37.360Z,13.80
2023-03-18T07:26:04.919Z,16.23
2023-03-18T07:28:32.840Z,14.88
2023-03-18T07:31:01.218Z,14.50
2023-03-18T07:33:29.055Z,14.70
2023-03-18T07:35:56.841Z,13.45
2023-03-18T07:38:24.444Z,13.48
2023-03-18T07:40:52.184Z,13.45
2023-03-18T07:43:19.523Z,12.93
2023-03-18T07:45:46.878Z,15.05
2023-03-18T07:48:14.400Z,14.75
2023-03-18T07:50:41.678Z,13.93
2023-03-18T07:53:09.047Z,14.55
2023-03-18T07:55:36.932Z,15.13
2023-03-18T07:58:04.866Z,15.63
2023-03-18T08:00:33.820Z,16.13
2023-03-18T08:03:31.023Z,16.85
2023-03-18T08:05:59.912Z,18.27
2023-03-18T08:08:28.504Z,18.05
2023-03-18T08:11:00.455Z,19.13
2023-03-18T08:13:30.674Z,19.63
2023-03-18T08:15:58.732Z,19.70
2023-03-18T08:18:26.589Z,20.92
2023-03-18T08:20:57.114Z,20.73
2023-03-18T08:23:27.327Z,20.58
2023-03-18T08:25:55.081Z,20.15
2023-03-18T08:28:22.478Z,21.33
2023-03-18T08:30:54.206Z,19.63
2023-03-18T08:35:52.245Z,19.83
2023-03-18T08:38:19.839Z,20.05
2023-03-18T08:40:48.356Z,19.83
2023-03-18T08:43:15.854Z,19.80
2023-03-18T08:45:43.992Z,19.58
2023-03-18T08:48:11.664Z,19.70
2023-03-18T08:50:39.236Z,19.10
2023-03-18T08:53:06.858Z,19.13
2023-03-18T08:55:41.498Z,20.08
2023-03-18T08:58:13.198Z,19.55
2023-03-18T09:00:45.448Z,18.58
2023-03-18T09:03:14.313Z,19.10
2023-03-18T09:05:42.152Z,19.17
2023-03-18T09:08:12.840Z,18.40
2023-03-18T09:10:49.716Z,17.98
2023-03-18T09:13:19.754Z,19.67
2023-03-18T09:15:50.930Z,19.52
2023-03-18T09:18:20.693Z,20.30
2023-03-18T09:20:52.172Z,19.40
2023-03-18T09:23:19.694Z,18.70
2023-03-18T09:25:47.399Z,17.83
2023-03-18T09:28:27.204Z,19.92
2023-03-18T09:31:00.631Z,18.95
2023-03-18T09:33:31.261Z,19.20
2023-03-18T09:36:01.195Z,18.33
2023-03-18T09:38:36.255Z,18.23
2023-03-18T09:41:24.926Z,17.30
2023-03-18T09:44:17.812Z,17.25
2023-03-18T09:47:01.188Z,16.52
2023-03-18T09:49:39.125Z,17.08
2023-03-18T09:52:22.524Z,17.48
2023-03-18T09:54:54.496Z,16.95
2023-03-18T09:57:30.791Z,16.67
2023-03-18T10:00:25.965Z,17.02
2023-03-18T10:03:28.186Z,17.52
2023-03-18T10:06:06.647Z,16.40
2023-03-18T10:08:57.212Z,16.00
2023-03-18T10:11:39.964Z,17.38
2023-03-18T10:14:36.340Z,17.13
2023-03-18T10:17:22.622Z,17.75
2023-03-18T10:19:55.885Z,16.60
2023-03-18T10:22:38.335Z,16.25
2023-03-18T10:25:23.550Z,14.68
2023-03-18T10:27:58.238Z,16.30
2023-03-18T10:30:51.555Z,16.58
2023-03-18T10:36:08.796Z,14.65
2023-03-18T10:38:38.328Z,16.42
2023-03-18T10:41:22.037Z,15.13
2023-03-18T10:43:56.112Z,15.90
2023-03-18T10:46:24.812Z,15.00
2023-03-18T10:49:08.013Z,14.20
2023-03-18T10:51:54.922Z,14.73
2023-03-18T10:54:34.295Z,14.27
2023-03-18T10:57:02.091Z,14.80
2023-03-18T10:59:30.067Z,13.80
2023-03-18T11:02:11.592Z,14.20
2023-03-18T11:04:57.975Z,13.57
2023-03-18T11:07:26.899Z,14.57
2023-03-18T11:09:54.988Z,14.00
2023-03-18T11:12:31.929Z,14.40
2023-03-18T11:14:59.283Z,13.68
2023-03-18T11:17:28.116Z,13.90
2023-03-18T11:20:17.036Z,14.05
2023-03-18T11:22:52.094Z,13.15
2023-03-18T11:25:26.678Z,13.15
2023-03-18T11:28:00.992Z,12.77
2023-03-18T11:30:34.909Z,12.88
2023-03-18T11:33:11.980Z,11.68
2023-03-18T11:35:52.818Z,11.77
2023-03-18T11:38:32.687Z,11.90
2023-03-18T11:41:18.117Z,10.88
2023-03-18T11:44:04.972Z,11.85
2023-03-18T11:46:41.218Z,11.65
2023-03-18T11:49:18.312Z,11.25
2023-03-18T11:52:14.194Z,11.32
2023-03-18T11:55:19.788Z,11.40
2023-03-18T11:58:02.148Z,9.65
2023-03-18T12:00:56.870Z,9.80
2023-03-18T12:03:50.638Z,8.98
2023-03-18T12:06:41.630Z,8.25
2023-03-18T12:09:34.713Z,8.70
2023-03-18T12:12:10.141Z,8.38
2023-03-18T12:15:01.106Z,8.60
2023-03-18T12:17:45.541Z,9.45
2023-03-18T12:20:21.684Z,8.93
2023-03-18T12:23:21.370Z,10.32
2023-03-18T12:25:52.362Z,9.02
2023-03-18T12:28:42.656Z,8.60
2023-03-18T12:31:25.148Z,8.70
2023-03-18T12:33:58.370Z,9.02
2023-03-18T12:36:44.531Z,8.63
2023-03-18T12:39:31.157Z,9.30
2023-03-18T12:41:58.642Z,8.50
2023-03-18T12:44:33.640Z,9.07
2023-03-18T12:47:15.288Z,8.93
2023-03-18T12:49:48.555Z,9.60
2023-03-18T12:52:43.924Z,9.00
2023-03-18T12:55:29.454Z,8.32
2023-03-18T12:58:20.232Z,8.45
2023-03-18T13:00:54.943Z,7.85
2023-03-18T13:03:26.750Z,6.20
2023-03-18T13:06:08.948Z,5.32
2023-03-18T13:09:00.844Z,5.00
2023-03-18T13:11:51.982Z,4.22
2023-03-18T13:14:31.465Z,4.53
2023-03-18T13:16:59.760Z,4.22
2023-03-18T13:19:27.487Z,4.15
2023-03-18T13:22:08.421Z,4.03
2023-03-18T13:25:02.578Z,4.65
2023-03-18T13:27:49.552Z,4.70
2023-03-18T13:30:25.640Z,4.65
2023-03-18T13:33:12.390Z,4.47
2023-03-18T13:35:55.255Z,4.88
2023-03-18T13:38:44.380Z,4.20
2023-03-18T13:41:25.584Z,3.97
2023-03-18T13:43:53.488Z,4.00
2023-03-18T13:46:24.865Z,3.38
2023-03-18T13:49:00.334Z,3.10
2023-03-18T13:51:28.709Z,2.88
2023-03-18T13:54:01.681Z,3.22
2023-03-18T13:56:53.833Z,2.83
2023-03-18T13:59:33.533Z,2.67
2023-03-18T14:02:31.493Z,2.90
2023-03-18T14:05:00.955Z,3.28
2023-03-18T14:07:32.144Z,3.33
2023-03-18T14:10:17.884Z,2.45
2023-03-18T14:12:47.494Z,2.55
2023-03-18T14:15:15.958Z,2.33
2023-03-18T14:17:48.802Z,2.17
2023-03-18T14:22:49.858Z,2.17
2023-03-18T14:25:24.446Z,1.92
2023-03-18T14:28:18.783Z,2.03
2023-03-18T14:30:53.323Z,1.80
2023-03-18T14:33:20.810Z,2.40
2023-03-18T14:36:02.260Z,2.30
2023-03-18T14:38:42.928Z,2.13
2023-03-18T14:41:22.727Z,2.50
2023-03-18T14:43:55.006Z,3.03
2023-03-18T14:46:32.184Z,2.78
2023-03-18T14:48:59.788Z,2.65
2023-03-18T14:51:29.122Z,2.80
2023-03-18T14:54:10.845Z,3.08
2023-03-18T14:56:42.536Z,3.00
2023-03-18T14:59:15.478Z,2.78
2023-03-18T15:01:46.823Z,2.80
2023-03-18T15:04:25.744Z,2.70
2023-03-18T15:06:54.684Z,2.58
2023-03-18T15:09:25.672Z,2.95
2023-03-18T15:11:53.928Z,2.70
2023-03-18T15:14:26.133Z,2.78
2023-03-18T15:16:59.958Z,2.65
2023-03-18T15:19:29.291Z,2.95
2023-03-18T15:21:58.983Z,2.40
2023-03-18T15:24:27.928Z,2.40
2023-03-18T15:26:59.229Z,2.47
2023-03-18T15:29:33.390Z,2.30
2023-03-18T15:32:18.526Z,2.22
2023-03-18T15:34:52.930Z,2.10
2023-03-18T15:37:42.097Z,2.30
2023-03-18T15:40:32.302Z,2.50
2023-03-18T15:43:04.863Z,2.15
2023-03-18T15:45:34.173Z,2.72
2023-03-18T15:48:08.346Z,2.40
2023-03-18T15:50:37.415Z,2.45
2023-03-18T15:53:18.322Z,2.30
2023-03-18T15:55:58.768Z,2.30
2023-03-18T15:58:36.087Z,2.30
2023-03-18T16:01:04.473Z,1.92
2023-03-18T16:03:35.618Z,2.20
2023-03-18T16:06:03.618Z,2.13
2023-03-18T16:08:31.700Z,2.60
2023-03-18T16:11:02.535Z,2.10
2023-03-18T16:13:32.647Z,2.33
2023-03-18T16:16:00.345Z,2.30
2023-03-18T16:18:27.712Z,2.20
2023-03-18T16:20:58.708Z,2.30
2023-03-18T16:23:26.323Z,2.45
2023-03-18T16:25:55.455Z,2.20
2023-03-18T16:28:25.909Z,2.00
2023-03-18T16:30:55.883Z,2.08
2023-03-18T16:33:24.205Z,2.40
2023-03-18T16:36:00.537Z,2.15
2023-03-18T16:38:28.830Z,2.40
2023-03-18T16:40:58.356Z,2.22
2023-03-18T16:46:17.763Z,1.98
2023-03-18T16:48:45.160Z,2.00
2023-03-18T16:51:13.083Z,2.08
2023-03-18T16:53:40.610Z,2.17
2023-03-18T16:56:17.273Z,2.55
2023-03-18T16:58:45.463Z,2.13
2023-03-18T17:01:16.539Z,2.22
2023-03-18T17:03:44.305Z,2.20
2023-03-18T17:06:12.729Z,1.92
2023-03-18T17:08:40.239Z,2.03
2023-03-18T17:11:07.989Z,2.20
2023-03-18T17:13:38.268Z,2.17
2023-03-18T17:16:05.897Z,2.00
2023-03-18T17:18:33.424Z,1.77
2023-03-18T17:21:03.547Z,1.95
2023-03-18T17:23:30.962Z,2.00
2023-03-18T17:25:59.682Z,2.40
2023-03-18T17:28:34.608Z,2.10
2023-03-18T17:31:02.331Z,1.95
2023-03-18T17:33:31.821Z,2.22
2023-03-18T17:36:01.596Z,2.35
2023-03-18T17:38:31.230Z,2.03
2023-03-18T17:40:59.659Z,1.67
2023-03-18T17:43:39.566Z,2.10
2023-03-18T17:46:07.739Z,2.40
2023-03-18T17:48:48.435Z,2.13
2023-03-18T17:51:25.084Z,2.38
2023-03-18T17:54:03.449Z,2.00
2023-03-18T17:56:36.828Z,2.10
2023-03-18T17:59:13.874Z,2.20
2023-03-18T18:04:27.988Z,2.05
2023-03-18T18:06:56.347Z,2.15
2023-03-18T18:09:23.851Z,2.03
2023-03-18T18:11:52.034Z,2.10
2023-03-18T18:14:32.166Z,2.38
2023-03-18T18:16:59.748Z,2.88
2023-03-18T18:19:27.292Z,2.80
2023-03-18T18:22:03.795Z,2.35
2023-03-18T18:24:34.591Z,2.58
2023-03-18T18:27:02.928Z,3.00
2023-03-18T18:29:30.300Z,2.83
2023-03-18T18:31:57.943Z,2.38
2023-03-18T18:34:25.732Z,2.35
2023-03-18T18:36:53.293Z,2.80
2023-03-18T18:39:21.255Z,2.72
2023-03-18T18:41:48.704Z,2.67
2023-03-18T18:44:16.217Z,2.75
2023-03-18T18:46:43.770Z,2.70
2023-03-18T18:49:24.672Z,2.75
2023-03-18T18:51:56.911Z,3.10
2023-03-18T18:54:25.160Z,3.00
2023-03-18T18:56:52.767Z,2.90
2023-03-18T18:59:27.561Z,3.20
2023-03-18T19:01:56.424Z,3.50
2023-03-18T19:04:39.559Z,3.53
2023-03-18T19:09:49.096Z,3.50
2023-03-18T19:23:50.987Z,3.15
2023-03-18T19:29:03.906Z,2.92
2023-03-18T19:31:32.237Z,2.78
2023-03-18T19:34:00.671Z,3.00
2023-03-18T19:36:40.496Z,2.75
2023-03-18T19:39:15.580Z,3.55
2023-03-18T19:41:45.115Z,3.40
2023-03-18T19:44:36.252Z,3.63
2023-03-18T19:47:59.714Z,3.47
2023-03-18T19:51:04.313Z,3.88
2023-03-18T19:56:34.040Z,3.53
2023-03-18T19:59:11.100Z,3.80
2023-03-18T20:04:38.189Z,2.90
2023-03-18T20:07:06.441Z,3.47
2023-03-18T20:09:33.837Z,3.20
2023-03-18T20:12:05.703Z,3.05
2023-03-18T20:14:38.388Z,2.90
2023-03-18T20:17:40.492Z,2.90
2023-03-18T20:20:30.240Z,2.50
2023-03-18T20:23:36.954Z,2.55
2023-03-18T20:26:27.219Z,2.10
2023-03-18T20:28:56.711Z,2.10
2023-03-18T20:31:59.357Z,2.38
2023-03-18T20:34:37.518Z,2.03
2023-03-18T20:40:33.963Z,1.63
2023-03-18T20:43:07.028Z,1.80
2023-03-18T20:45:39.616Z,1.73
2023-03-18T20:48:13.251Z,1.80
2023-03-18T20:50:43.751Z,1.70
2023-03-18T20:56:07.838Z,1.80
2023-03-18T20:58:35.465Z,2.08
2023-03-18T21:01:03.827Z,2.00
2023-03-18T21:03:33.577Z,1.92
2023-03-18T21:06:03.565Z,1.80
2023-03-18T21:08:32.942Z,2.42
2023-03-18T21:11:02.207Z,1.95
2023-03-18T21:13:36.195Z,1.85
2023-03-18T21:16:06.052Z,1.95
2023-03-18T21:18:35.887Z,2.10
2023-03-18T21:21:04.493Z,2.25
2023-03-18T21:23:37.391Z,2.10
2023-03-18T21:31:34.894Z,2.10
2023-03-18T21:34:12.662Z,2.53
2023-03-18T21:36:56.702Z,2.30
2023-03-18T21:39:32.723Z,2.40
2023-03-18T21:42:01.510Z,2.33
2023-03-18T21:44:28.874Z,2.22
2023-03-18T21:46:56.328Z,2.30
2023-03-18T21:49:23.698Z,2.50
2023-03-18T21:51:53.412Z,2.47
2023-03-18T21:54:22.272Z,2.40
2023-03-18T21:56:51.197Z,2.40
2023-03-18T21:59:18.645Z,2.20
2023-03-18T22:01:46.232Z,2.33
2023-03-18T22:04:14.227Z,2.20
2023-03-18T22:06:41.669Z,2.50
2023-03-18T22:09:09.833Z,2.83
2023-03-18T22:11:37.301Z,2.72
2023-03-18T22:14:04.941Z,2.90
2023-03-18T22:16:32.427Z,2.78
2023-03-18T22:18:59.896Z,3.25
2023-03-18T22:21:28.437Z,2.50
2023-03-18T22:23:58.216Z,2.60
2023-03-18T22:26:26.012Z,2.65
2023-03-18T22:28:53.366Z,2.67
2023-03-18T22:31:26.566Z,2.90
2023-03-18T22:33:57.584Z,2.92
2023-03-18T22:36:27.548Z,3.03
2023-03-18T22:38:55.216Z,2.70
2023-03-18T22:41:25.474Z,2.92
2023-03-18T22:43:55.295Z,3.60
2023-03-18T22:46:22.631Z,3.78
2023-03-18T22:48:50.418Z,3.10
2023-03-18T22:51:39.177Z,3.50
2023-03-18T22:54:07.610Z,3.63
2023-03-18T22:56:35.017Z,3.53
2023-03-18T22:59:04.559Z,4.22
2023-03-18T23:01:32.017Z,3.80
2023-03-18T23:04:00.180Z,3.72
2023-03-18T23:06:28.493Z,3.80
2023-03-18T23:08:56.014Z,3.97
2023-03-18T23:11:23.394Z,3.70
2023-03-18T23:13:52.282Z,3.92
2023-03-18T23:16:21.943Z,3.90
2023-03-18T23:18:50.613Z,4.35
2023-03-18T23:21:22.709Z,4.25
2023-03-18T23:23:50.573Z,4.37
2023-03-18T23:26:18.092Z,4.25
2023-03-18T23:28:45.968Z,4.18
2023-03-18T23:31:15.126Z,4.75
2023-03-18T23:33:42.977Z,4.40
2023-03-18T23:36:10.632Z,4.45
2023-03-18T23:38:38.220Z,4.10
2023-03-18T23:41:06.214Z,4.45
2023-03-18T23:43:33.664Z,4.47
2023-03-18T23:46:02.303Z,4.90
2023-03-18T23:48:29.802Z,4.72
2023-03-18T23:50:57.185Z,4.88
2023-03-18T23:53:24.680Z,5.10
2023-03-18T23:55:52.686Z,5.07
2023-03-18T23:58:20.218Z,5.28
